Terminal Aerodrome Forecast
Issued by NWS

Home | Current Version | Previous Version | Text Only | Print | Product List | Glossary On
Versions: 1 2 3 4 5 6 7 8 9 10 11 12 13 14
611
FTUS44 KLUB 211121
TAFCDS
TAF
KCDS 211121Z 2112/2212 21010KT P6SM SKC
     FM211700 23020G30KT P6SM FEW250
     FM212000 25027G37KT P6SM FEW250
     FM220000 27020KT P6SM FEW250=

USA.gov is the U.S. government's official web portal to all federal, state and local government web resources and services.